Dorothy Ann — WDE8761 — position and weather

sailwx.info

Track history (hours):
 
Tides and Currents Weather Stations Pressure Air Temp Water Temp Dewpoint Dewpoint Depression Visibility Wind Speed Wind Dir Waves Ship Positions

Dorothy Ann

Owner: THE INTERLAKE STEAMSHIP COMPANY, Middleburg Heights, OH. More information available from US FCC via Universal Licensing System and Coast Guard Vessel Documentation Center.

Last reported at 2016-Aug-31 01:33 UTC. Time now 2016-Aug-31 02:13 UTC.
Position N 45°45' W 084°35'.

Length 215 m; draft 5.9 m.

Type: Cargo ship. MMSI: 367409260.

Date/timePositionNaut miles runAvg speedWind from/ knotsBaromVisibWave heightAir tempDewpointWater temp
2016-Aug-31 01:33N 45°45' W 084°35'5 8.9
2016-Aug-31 01:00N 45°42' W 084°30'610.3 010 / 161017.1 20.1 42.6
2016-Aug-31 00:24N 45°41' W 084°21'2 5.9
2016-Aug-31 00:00N 45°42' W 084°18'1010.3 010 / 181016.4 21.1 42.6
2016-Aug-30 23:00N 45°36' W 084°06'1010.3 340 / 161016.4 22.5 42.6
2016-Aug-30 22:00N 45°30' W 083°54'8 8.4 320 / 181016.0 23.8 42.6
2016-Aug-30 21:00N 45°30' W 083°42'1414.0 350 / 131016.4 22.8 42.6
2016-Aug-30 20:00N 45°24' W 083°24'7 7.3 020 / 71016.7 22.7 42.6
2016-Aug-30 19:00N 45°18' W 083°18'1514.7 160 / 91017.1 23.5 42.6
2016-Aug-30 18:00N 45°06' W 083°06'6 6.0 050 / 101017.4 22.8 42.6
2016-Aug-30 17:00N 45°00' W 083°06'1312.7 210 / 71018.4 22.7 42.6
2016-Aug-30 16:00N 44°48' W 083°00'7 7.4 210 / 131019.1 22.8 42.6
2016-Aug-30 15:00N 44°42' W 082°54'1312.7 220 / 141019.4 22.1 42.6
2016-Aug-30 14:00N 44°30' W 082°48'6 6.0 230 / 141020.1 22.5 42.6
2016-Aug-30 13:00N 44°24' W 082°48'1312.7 240 / 131020.8 22.4 42.6
2016-Aug-30 12:00N 44°12' W 082°42'1312.8 230 / 121020.8 21.7 42.6
2016-Aug-30 11:00N 44°00' W 082°36'7 7.4 220 / 101021.1 20.8 42.6
2016-Aug-30 10:00N 43°54' W 082°30'2412.0 220 / 101021.5 20.5 42.6
2016-Aug-30 08:00N 43°30' W 082°30'6 6.0 220 / 91022.5 21.0 42.6
2016-Aug-30 07:00N 43°24' W 082°30'1312.8 210 / 81022.8 21.6 42.6
2016-Aug-30 06:00N 43°12' W 082°24'1212.0 220 / 51022.8 21.5 42.6
2016-Aug-30 05:00N 43°00' W 082°24'7 7.4 200 / 21023.2 20.3 42.6
2016-Aug-30 04:00N 42°54' W 082°30'6 6.0 120 / 21023.2 19.9 42.6
2016-Aug-30 03:00N 42°48' W 082°30'6 6.0 080 / 11023.5 19.9 42.6
2016-Aug-30 02:00N 42°42' W 082°30'15 7.5 030 / 41023.8 20.8 42.6
2016-Aug-30 00:00N 42°30' W 082°42'1110.7 110 / 51023.3 24.7 42.6
2016-Aug-29 23:00N 42°24' W 082°54'1110.7 110 / 71023.3 25.5 42.6
2016-Aug-29 22:00N 42°18' W 083°06'0 0.0 070 / 131023.3 26.0 42.6
2016-Aug-29 21:00N 42°18' W 083°06'0 0.0 180 / 51024.0 27.1 42.6
2016-Aug-29 20:00N 42°18' W 083°06'0 0.0 160 / 51024.3 27.4 42.6
2016-Aug-29 19:00N 42°18' W 083°06'0 0.0 070 / 31025.3 26.8 42.6
2016-Aug-29 18:00N 42°18' W 083°06'11 2.1 120 / 41025.7 26.8 42.6
2016-Aug-29 13:00N 42°24' W 082°54'1110.7 060 / 91026.0 22.2 42.6
2016-Aug-29 12:00N 42°30' W 082°42'7 7.5 070 / 81025.7 21.3 42.6
2016-Aug-29 11:00N 42°36' W 082°36'7 7.4 040 / 81025.3 19.2 42.6
2016-Aug-29 10:00N 42°42' W 082°30'1212.0 030 / 51025.2 19.6 42.6
2016-Aug-29 09:00N 42°54' W 082°30'7 7.4 080 / 51024.5 19.9 42.6
2016-Aug-29 08:00N 43°00' W 082°24'1212.0 080 / 71024.510.8 0.521.7 42.6
2016-Aug-29 07:00N 43°12' W 082°24'6 6.0 050 / 91024.5 21.9 42.6
2016-Aug-29 06:00N 43°18' W 082°24'1312.8 050 / 91024.2 21.7 42.6
2016-Aug-29 05:00N 43°30' W 082°30'6 6.0 040 / 101024.5 21.4 42.6
2016-Aug-29 04:00N 43°36' W 082°30'1212.0 070 / 71024.5 21.4 42.6
2016-Aug-29 03:00N 43°48' W 082°30'6 6.0 070 / 71023.8 21.1 42.6
2016-Aug-29 02:00N 43°54' W 082°30'7 7.4 060 / 91023.5 21.1 42.6
2016-Aug-29 01:00N 44°00' W 082°36'1110.5 060 / 91022.8 21.1 42.6
2016-Aug-29 00:00N 44°06' W 082°48'7 7.4 050 / 101022.5 21.7 42.6
2016-Aug-28 23:00N 44°12' W 082°54'1010.5 070 / 41022.5 22.1 42.6
2016-Aug-28 22:00N 44°18' W 083°06'7 7.4 140 / 81022.5 22.7 42.6
2016-Aug-28 21:00N 44°24' W 083°12'6 6.0 120 / 101022.5 22.0 42.6
2016-Aug-28 20:00N 44°30' W 083°12'1212.0 110 / 91022.1 21.2 42.6
2016-Aug-28 19:00N 44°42' W 083°12'7 7.4 1022.5 23.0 42.6
2016-Aug-28 18:00N 44°48' W 083°06'1212.0 330 / 101022.8 21.5 42.6
2016-Aug-28 17:00N 45°00' W 083°06'6 6.0 300 / 111022.5 21.1 42.6
2016-Aug-28 16:00N 45°06' W 083°06'1010.4 330 / 161022.5 19.4 42.6
2016-Aug-28 15:00N 45°12' W 083°18'7 7.3 300 / 161021.8 22.9 42.6
2016-Aug-28 14:00N 45°18' W 083°24'0 0.0 310 / 161020.8 20.0 42.6
2016-Aug-28 13:00N 45°18' W 083°24'0 0.0 300 / 121020.8 19.3 42.6
2016-Aug-28 12:00N 45°18' W 083°24'0 0.0 310 / 121020.4 19.4 42.6
2016-Aug-28 11:00N 45°18' W 083°24'0 0.0 270 / 81019.8 20.6 42.6
2016-Aug-28 10:00N 45°18' W 083°24'0 0.0 240 / 91018.8 20.8 42.6
2016-Aug-28 09:00N 45°18' W 083°24'0 0.0 230 / 101018.1 20.6 42.6
2016-Aug-28 08:00N 45°18' W 083°24'0 0.0 220 / 101018.4 20.9 42.6
2016-Aug-28 07:00N 45°18' W 083°24'0 0.0 210 / 101018.1 20.9 42.6
2016-Aug-28 06:00N 45°18' W 083°24'0 0.0 210 / 101017.7 20.8 42.6
2016-Aug-28 05:00N 45°18' W 083°24'0 0.0 210 / 101018.1 20.6 42.6
2016-Aug-28 04:00N 45°18' W 083°24'0 0.0 150 / 91018.4 23.8 42.6
2016-Aug-28 03:00N 45°18' W 083°24'7 7.3 150 / 91018.8 24.2 42.6
2016-Aug-28 02:00N 45°12' W 083°18'1010.4 140 / 161018.8 22.0 42.6
2016-Aug-28 01:00N 45°06' W 083°06'6 6.0 120 / 141019.1 20.9 42.6
2016-Aug-28 00:00N 45°00' W 083°06'1312.7 120 / 141019.1 21.1 42.6
2016-Aug-27 23:00N 44°48' W 083°12'1212.0 130 / 151019.4 21.5 42.6
2016-Aug-27 22:00N 44°36' W 083°12'6 6.0 130 / 171019.4 21.2 42.6
2016-Aug-27 21:00N 44°30' W 083°12'1212.0 130 / 141019.8 20.9 42.6
2016-Aug-27 20:00N 44°18' W 083°12'1010.5 090 / 161019.8 21.4 42.6
2016-Aug-27 19:00N 44°12' W 083°24'7 7.4 100 / 151020.4 21.1 42.6
2016-Aug-27 18:00N 44°06' W 083°30'1312.8 090 / 121021.1 20.1 42.6
2016-Aug-27 17:00N 43°54' W 083°36'7 7.4 050 / 71021.5 20.4 42.6
2016-Aug-27 16:00N 43°48' W 083°42'1312.8 340 / 141021.8 20.4 42.6
2016-Aug-27 15:00N 43°36' W 083°48'0 0.0 320 / 101022.5 21.6 42.6
2016-Aug-27 14:00N 43°36' W 083°48'0 0.0 140 / 41021.8 21.5 42.6
2016-Aug-27 13:00N 43°36' W 083°48'0 0.0 050 / 11021.5 20.8 42.6
2016-Aug-27 12:00N 43°36' W 083°48'0 0.0 170 / 41021.8 18.9 42.6
2016-Aug-27 11:00N 43°36' W 083°48'0 0.0 170 / 51021.1 18.5 42.6
2016-Aug-27 10:00N 43°36' W 083°48'0 0.0 160 / 21021.1 19.2 42.6
2016-Aug-27 09:00N 43°36' W 083°48'6 6.0 070 / 11021.5 19.9 42.6
2016-Aug-27 08:00N 43°42' W 083°48'7 7.4 040 / 51021.5 20.9 42.6
2016-Aug-27 07:00N 43°48' W 083°42'7 7.4 360 / 101021.5 20.6 42.6
2016-Aug-27 06:00N 43°54' W 083°36'1312.8 360 / 91021.5 19.8 42.6
2016-Aug-27 05:00N 44°06' W 083°30'7 7.4 010 / 101021.1 21.2 42.6
2016-Aug-27 04:00N 44°12' W 083°24'7 7.4 010 / 101021.5 20.8 42.6
2016-Aug-27 03:00N 44°18' W 083°18'7 7.4 110 / 91021.5 21.8 42.6
2016-Aug-27 02:00N 44°24' W 083°12'1212.0 110 / 121020.8 21.1 42.6
2016-Aug-27 01:00N 44°36' W 083°12'6 6.0 100 / 101020.8 21.3 42.6
2016-Aug-27 00:00N 44°42' W 083°12'7 7.4 090 / 91020.8 21.7 42.6
2016-Aug-26 23:00N 44°48' W 083°06'1212.0 100 / 81020.1 21.3 42.6
2016-Aug-26 22:00N 45°00' W 083°06'6 6.0 090 / 71020.1 20.9 42.6
2016-Aug-26 21:00N 45°06' W 083°06'1010.4 150 / 81020.1 20.3 42.6
2016-Aug-26 20:00N 45°12' W 083°18'1312.7 100 / 51020.1 19.9 42.6
2016-Aug-26 19:00N 45°24' W 083°24'8 8.4 020 / 91020.1 21.0 42.6
2016-Aug-26 18:00N 45°24' W 083°36'8 8.4 010 / 81019.4 20.1 42.6
2016-Aug-26 17:00N 45°24' W 083°48'0 0.0 360 / 91019.810.8 0.520.0 42.6
2016-Aug-26 16:00N 45°24' W 083°48'0 0.0 340 / 51020.1 20.2 42.6
2016-Aug-26 15:00N 45°24' W 083°48'0 0.0 320 / 111019.8 20.0 42.6
2016-Aug-26 14:00N 45°24' W 083°48'0 0.0 300 / 61019.8 20.4 42.6
2016-Aug-26 13:00N 45°24' W 083°48'0 0.0 260 / 71019.1 19.4 42.6
2016-Aug-26 12:00N 45°24' W 083°48'0 0.0 260 / 61018.8 18.4 42.6
2016-Aug-26 11:00N 45°24' W 083°48'0 0.0 270 / 71018.1 16.8 42.6
2016-Aug-26 10:00N 45°24' W 083°48'0 0.0 280 / 71017.4 17.5 42.6
2016-Aug-26 09:00N 45°24' W 083°48'0 0.0 280 / 81017.1 18.0 42.6
2016-Aug-26 08:00N 45°24' W 083°48'0 0.0 300 / 101016.4 18.6 42.6
2016-Aug-26 07:00N 45°24' W 083°48'0 0.0 240 / 101015.7 19.8 42.6
2016-Aug-26 06:00N 45°24' W 083°48'0 0.0 250 / 121015.0 19.3 42.6
2016-Aug-26 05:00N 45°24' W 083°48'4 4.2 260 / 121015.4 19.5 42.6
2016-Aug-26 04:00N 45°24' W 083°42'8 8.4 220 / 121014.7 20.1 42.6
2016-Aug-26 03:00N 45°24' W 083°30'1010.3 270 / 81015.0 20.6 42.6
2016-Aug-26 02:00N 45°18' W 083°18'7 7.3 290 / 131015.4 21.6 42.6
2016-Aug-26 01:00N 45°12' W 083°12'1312.7 320 / 181014.3 21.8 42.6
2016-Aug-26 00:00N 45°00' W 083°06'1212.0 080 / 71014.0 22.6 42.6
2016-Aug-25 23:00N 44°48' W 083°06'7 7.4 030 / 61014.0 23.5 42.6
2016-Aug-25 22:00N 44°42' W 083°12'1212.0 160 / 51013.7 23.9 42.6
2016-Aug-25 21:00N 44°30' W 083°12'1212.0 190 / 111013.7 24.5 42.6
2016-Aug-25 20:00N 44°18' W 083°12'1010.5 210 / 121014.0 23.3 42.6
2016-Aug-25 19:00N 44°12' W 083°24'7 7.4 220 / 111014.0 23.8 42.6
2016-Aug-25 18:00N 44°06' W 083°30'1312.8 210 / 131014.3 22.7 42.6
2016-Aug-25 17:00N 43°54' W 083°36'7 7.4 210 / 81015.0 24.7 42.6
2016-Aug-25 16:00N 43°48' W 083°42'7 7.4 250 / 31014.7 22.5 42.6
2016-Aug-25 15:00N 43°42' W 083°48'7 7.4 300 / 21014.7 22.6 42.6
2016-Aug-25 14:00N 43°36' W 083°54'0 0.0 200 / 61014.7 22.6 42.6
2016-Aug-25 13:00N 43°36' W 083°54'0 0.0 220 / 81015.7 22.0 42.6
2016-Aug-25 12:00N 43°36' W 083°54'6 6.0 230 / 51015.0 22.3 42.6
2016-Aug-25 11:00N 43°30' W 083°54'0 0.0 210 / 61015.0 22.4 42.6
2016-Aug-25 10:00N 43°30' W 083°54'0 0.0 240 / 31014.7 22.4 42.6
2016-Aug-25 09:00N 43°30' W 083°54'0 0.0 180 / 41014.7 24.8 42.6
2016-Aug-25 08:00N 43°30' W 083°54'0 0.0 270 / 21014.7 23.3 42.6
2016-Aug-25 07:00N 43°30' W 083°54'0 0.0 250 / 31014.0 22.6 42.6
2016-Aug-25 06:00N 43°30' W 083°54'0 0.0 240 / 41013.7 23.2 42.6
2016-Aug-25 05:00N 43°30' W 083°54'0 0.0 220 / 51013.7 24.9 42.6
2016-Aug-25 04:00N 43°30' W 083°54'0 0.0 250 / 71013.7 23.6 42.6
2016-Aug-25 03:00N 43°30' W 083°54'6 6.0 240 / 81014.0 24.1 42.6
2016-Aug-25 02:00N 43°36' W 083°54'0 0.0 230 / 91014.0 25.2 42.6
2016-Aug-25 01:00N 43°36' W 083°54'0 0.0 200 / 51014.0 25.3 42.6
2016-Aug-25 00:00N 43°36' W 083°54'0 0.0 220 / 71013.7 25.9 42.6
2016-Aug-24 23:00N 43°36' W 083°54'4 4.3 220 / 101013.7 26.6 42.6
2016-Aug-24 22:00N 43°36' W 083°48'1212.0 220 / 81014.0 26.6 42.6
2016-Aug-24 21:00N 43°48' W 083°48'7 7.4 240 / 121014.0 25.2 42.6
2016-Aug-24 20:00N 43°54' W 083°42'1110.5 210 / 191014.3 24.2 42.6
2016-Aug-24 19:00N 44°00' W 083°30'6 6.0 220 / 181014.7 23.7 42.6
2016-Aug-24 18:00N 44°06' W 083°30'1010.5 200 / 221015.4 22.4 42.6
2016-Aug-24 17:00N 44°12' W 083°18'7 7.4 180 / 211015.4 23.9 42.6
2016-Aug-24 16:00N 44°18' W 083°12'1212.0 190 / 241016.4 23.2 42.6
2016-Aug-24 15:00N 44°30' W 083°12'6 6.0 180 / 241017.1 21.0 42.6
2016-Aug-24 14:00N 44°36' W 083°12'7 7.4 180 / 191017.4 20.7 42.6
2016-Aug-24 13:00N 44°42' W 083°06'1212.0 180 / 201018.1 20.3 42.6
2016-Aug-24 12:00N 44°54' W 083°06'6 6.0 190 / 181019.1 20.5 42.6
2016-Aug-24 11:00N 45°00' W 083°06'1312.7 180 / 161019.1 20.0 42.6
2016-Aug-24 10:00N 45°12' W 083°12'7 7.3 200 / 171019.1 20.0 42.6
2016-Aug-24 09:00N 45°18' W 083°18'7 7.3 190 / 181019.1 20.3 42.6
2016-Aug-24 08:00N 45°24' W 083°24'7 7.3 200 / 151019.1 20.1 42.6
2016-Aug-24 07:00N 45°30' W 083°30'20 9.9 210 / 141018.8 20.2 42.6
2016-Aug-24 05:00N 45°48' W 083°42'1010.3 220 / 161019.1 20.6 42.6
2016-Aug-24 04:00N 45°54' W 083°54'6 6.0 190 / 161018.8 20.7 42.6
2016-Aug-24 03:00N 46°00' W 083°54'0 0.0 200 / 61019.8 19.9 42.6
2016-Aug-24 02:00N 46°00' W 083°54'0 0.0 250 / 81020.1 21.8 42.6
2016-Aug-24 01:00N 46°00' W 083°54'0 0.0 260 / 81019.8 22.4 42.6
2016-Aug-24 00:00N 46°00' W 083°54'0 0.0 270 / 91019.8 23.8 42.6
2016-Aug-23 23:00N 46°00' W 083°54'0 0.0 280 / 91019.4 24.7 42.6
2016-Aug-23 22:00N 46°00' W 083°54'0 0.0 270 / 151019.4 25.5 42.6
2016-Aug-23 21:00N 46°00' W 083°54'0 0.0 270 / 181019.4 25.6 42.6
2016-Aug-23 20:00N 46°00' W 083°54'0 0.0 260 / 121019.8 25.8 42.6
2016-Aug-23 19:00N 46°00' W 083°54'1312.7 250 / 121020.1 22.4 42.6
2016-Aug-23 18:00N 45°48' W 083°48'7 7.3 240 / 121020.1 23.3 42.6
2016-Aug-23 17:00N 45°42' W 083°42'1010.3 230 / 131020.4 22.1 42.6
2016-Aug-23 16:00N 45°36' W 083°30'1312.7 220 / 111020.4 22.7 42.6
2016-Aug-23 15:00N 45°24' W 083°24'7 7.3 240 / 121021.1 22.2 42.6
2016-Aug-23 14:00N 45°18' W 083°18'1010.4 220 / 131021.8 21.4 42.6
2016-Aug-23 13:00N 45°12' W 083°06'1212.0 210 / 101022.1 20.3 42.6
2016-Aug-23 12:00N 45°00' W 083°06'1212.0 210 / 101021.8 19.2 42.6
2016-Aug-23 11:00N 44°48' W 083°06'7 7.4 200 / 91021.5 18.8 42.6
2016-Aug-23 10:00N 44°42' W 083°12'1212.0 230 / 121021.5 18.6 42.6
2016-Aug-23 09:00N 44°30' W 083°12'1212.0 220 / 191021.5 17.6 42.6
2016-Aug-23 08:00N 44°18' W 083°12'1010.5 250 / 191022.1 19.9 42.6
2016-Aug-23 07:00N 44°12' W 083°24'7 7.4 240 / 151022.5 21.3 42.6
2016-Aug-23 06:00N 44°06' W 083°30'1312.8 250 / 131022.5 20.5 42.6
2016-Aug-23 05:00N 43°54' W 083°36'7 7.4 250 / 161022.5 21.6 42.6
2016-Aug-23 04:00N 43°48' W 083°42'7 7.4 250 / 121022.1 21.5 42.6
2016-Aug-23 03:00N 43°42' W 083°48'7 7.4 210 / 71022.1 20.8 42.6
2016-Aug-23 02:00N 43°36' W 083°54'0 0.0 200 / 31021.8 20.5 42.6
2016-Aug-23 01:00N 43°36' W 083°54'6 6.0 210 / 51021.5 22.9 42.6
2016-Aug-23 00:00N 43°30' W 083°54'0 0.0 220 / 61021.5 22.8 42.6
2016-Aug-22 23:00N 43°30' W 083°54'0 0.0 260 / 61021.5 23.9 42.6
2016-Aug-22 22:00N 43°30' W 083°54'0 0.0 240 / 61021.5 24.5 42.6
2016-Aug-22 21:00N 43°30' W 083°54'0 0.0 200 / 31021.8 23.9 42.6
2016-Aug-22 20:00N 43°30' W 083°54'0 0.0 260 / 51021.8 22.8 42.6
2016-Aug-22 19:00N 43°30' W 083°54'0 0.0 200 / 61021.8 24.1 42.6
2016-Aug-22 18:00N 43°30' W 083°54'0 0.0 220 / 51022.5 23.0 42.6
2016-Aug-22 17:00N 43°30' W 083°54'0 0.0 240 / 41022.5 21.4 42.6
2016-Aug-22 16:00N 43°30' W 083°54'0 0.0 250 / 61022.5 20.2 42.6
2016-Aug-22 15:00N 43°30' W 083°54'6 6.0 220 / 41022.5 18.9 42.6
2016-Aug-22 14:00N 43°36' W 083°54'0 0.0 230 / 21022.1 17.7 42.6
2016-Aug-22 13:00N 43°36' W 083°54'0 0.0 220 / 31021.5 17.1 42.6
2016-Aug-22 12:00N 43°36' W 083°54'0 0.0 260 / 31020.8 14.8 42.6
2016-Aug-22 11:00N 43°36' W 083°54'4 4.3 250 / 41020.8 13.9 42.6
2016-Aug-22 10:00N 43°36' W 083°48'6 6.0 270 / 51019.8 14.4 42.6
2016-Aug-22 09:00N 43°42' W 083°48'7 7.4 300 / 121019.1 17.6 42.6
2016-Aug-22 08:00N 43°48' W 083°42'7 7.4 300 / 161018.4 18.0 42.6
2016-Aug-22 07:00N 43°54' W 083°36'1312.8 330 / 91018.1 17.5 42.6
2016-Aug-22 06:00N 44°06' W 083°30'7 7.4 330 / 61017.7 17.6 42.6
2016-Aug-22 05:00N 44°12' W 083°24'7 7.4 310 / 71017.1 18.0 42.6
2016-Aug-22 04:00N 44°18' W 083°18'7 7.4 320 / 101016.7 17.2 42.6
2016-Aug-22 03:00N 44°24' W 083°12'6 6.0 300 / 71016.0 16.4 42.6
2016-Aug-22 02:00N 44°30' W 083°12'1212.0 330 / 91015.4 17.9 42.6
2016-Aug-22 01:00N 44°42' W 083°12'7 7.4 1014.3 22.9 42.6
2016-Aug-22 00:00N 44°48' W 083°06'1212.0 350 / 181013.7 19.9 42.6
2016-Aug-21 23:00N 45°00' W 083°06'6 6.0 330 / 231013.0 17.7 42.6
2016-Aug-21 22:00N 45°06' W 083°06'1010.4 310 / 241012.0 17.8 42.6
2016-Aug-21 21:00N 45°12' W 083°18'7 7.3 320 / 231011.3 18.0 42.6
2016-Aug-21 20:00N 45°18' W 083°24'0 0.0 310 / 191011.0 17.4 42.6
2016-Aug-21 19:00N 45°18' W 083°24'0 0.0 310 / 211009.6 17.5 42.6
2016-Aug-21 18:00N 45°18' W 083°24'0 0.0 320 / 221008.9 17.7 42.6
2016-Aug-21 17:00N 45°18' W 083°24'0 0.0 330 / 171008.3 16.4 42.6
2016-Aug-21 16:00N 45°18' W 083°24'0 0.0 300 / 241006.9 17.5 42.6
2016-Aug-21 15:00N 45°18' W 083°24'0 0.0 310 / 231005.5 17.4 42.6
2016-Aug-21 14:00N 45°18' W 083°24'0 0.0 300 / 201004.2 17.0 42.6
2016-Aug-21 13:00N 45°18' W 083°24'0 0.0 280 / 171002.5 17.3 42.6
2016-Aug-21 12:00N 45°18' W 083°24'0 0.0 270 / 191001.5 17.3 42.6
2016-Aug-21 11:00N 45°18' W 083°24'0 0.0 260 / 171000.5 17.7 42.6
2016-Aug-21 10:00N 45°18' W 083°24'0 0.0 220 / 14999.4 17.8 42.6
2016-Aug-21 09:00N 45°18' W 083°24'7 7.3 250 / 17999.1 18.2 42.6
2016-Aug-21 08:00N 45°24' W 083°30'1010.3 260 / 30998.1 19.1 42.6
2016-Aug-21 07:00N 45°30' W 083°42'8 8.4 250 / 21997.8 19.4 42.6
2016-Aug-21 06:00N 45°30' W 083°54'1010.3 240 / 18997.4 20.1 42.6
2016-Aug-21 05:00N 45°36' W 084°06'1010.3 230 / 19997.1 20.5 42.6
2016-Aug-21 04:00N 45°42' W 084°18'1312.6 220 / 20996.7 21.0 42.6
2016-Aug-21 03:00N 45°42' W 084°36'1011.1 240 / 19996.4 21.2 42.6
2016-Aug-21 02:06N 45°49' W 084°46'217.1
2016-Aug-21 02:00N 45°48' W 084°48'   230 / 19996.1 21.7 42.6
Track history (hours):
 
Tides and Currents Weather Stations Pressure Air Temp Water Temp Dewpoint Dewpoint Depression Visibility Wind Speed Wind Dir Waves Ship Positions

Dorothy Ann

Owner: THE INTERLAKE STEAMSHIP COMPANY, Middleburg Heights, OH. More information available from US FCC via Universal Licensing System and Coast Guard Vessel Documentation Center.

Last reported at 2016-Aug-31 01:33 UTC. Time now 2016-Aug-31 02:13 UTC.
Position N 45°45' W 084°35'.

Length 215 m; draft 5.9 m.

Type: Cargo ship. MMSI: 367409260.

Date/timePositionNaut miles runAvg speedWind from/ knotsBaromVisibWave heightAir tempDewpointWater temp
2016-Aug-31 01:33N 45°45' W 084°35'5 8.9
2016-Aug-31 01:00N 45°42' W 084°30'610.3 010 / 161017.1 20.1 42.6
2016-Aug-31 00:24N 45°41' W 084°21'2 5.9
2016-Aug-31 00:00N 45°42' W 084°18'1010.3 010 / 181016.4 21.1 42.6
2016-Aug-30 23:00N 45°36' W 084°06'1010.3 340 / 161016.4 22.5 42.6
2016-Aug-30 22:00N 45°30' W 083°54'8 8.4 320 / 181016.0 23.8 42.6
2016-Aug-30 21:00N 45°30' W 083°42'1414.0 350 / 131016.4 22.8 42.6
2016-Aug-30 20:00N 45°24' W 083°24'7 7.3 020 / 71016.7 22.7 42.6
2016-Aug-30 19:00N 45°18' W 083°18'1514.7 160 / 91017.1 23.5 42.6
2016-Aug-30 18:00N 45°06' W 083°06'6 6.0 050 / 101017.4 22.8 42.6
2016-Aug-30 17:00N 45°00' W 083°06'1312.7 210 / 71018.4 22.7 42.6
2016-Aug-30 16:00N 44°48' W 083°00'7 7.4 210 / 131019.1 22.8 42.6
2016-Aug-30 15:00N 44°42' W 082°54'1312.7 220 / 141019.4 22.1 42.6
2016-Aug-30 14:00N 44°30' W 082°48'6 6.0 230 / 141020.1 22.5 42.6
2016-Aug-30 13:00N 44°24' W 082°48'1312.7 240 / 131020.8 22.4 42.6
2016-Aug-30 12:00N 44°12' W 082°42'1312.8 230 / 121020.8 21.7 42.6
2016-Aug-30 11:00N 44°00' W 082°36'7 7.4 220 / 101021.1 20.8 42.6
2016-Aug-30 10:00N 43°54' W 082°30'2412.0 220 / 101021.5 20.5 42.6
2016-Aug-30 08:00N 43°30' W 082°30'6 6.0 220 / 91022.5 21.0 42.6
2016-Aug-30 07:00N 43°24' W 082°30'1312.8 210 / 81022.8 21.6 42.6
2016-Aug-30 06:00N 43°12' W 082°24'1212.0 220 / 51022.8 21.5 42.6
2016-Aug-30 05:00N 43°00' W 082°24'7 7.4 200 / 21023.2 20.3 42.6
2016-Aug-30 04:00N 42°54' W 082°30'6 6.0 120 / 21023.2 19.9 42.6
2016-Aug-30 03:00N 42°48' W 082°30'6 6.0 080 / 11023.5 19.9 42.6
2016-Aug-30 02:00N 42°42' W 082°30'15 7.5 030 / 41023.8 20.8 42.6
2016-Aug-30 00:00N 42°30' W 082°42'1110.7 110 / 51023.3 24.7 42.6
2016-Aug-29 23:00N 42°24' W 082°54'1110.7 110 / 71023.3 25.5 42.6
2016-Aug-29 22:00N 42°18' W 083°06'0 0.0 070 / 131023.3 26.0 42.6
2016-Aug-29 21:00N 42°18' W 083°06'0 0.0 180 / 51024.0 27.1 42.6
2016-Aug-29 20:00N 42°18' W 083°06'0 0.0 160 / 51024.3 27.4 42.6
2016-Aug-29 19:00N 42°18' W 083°06'0 0.0 070 / 31025.3 26.8 42.6
2016-Aug-29 18:00N 42°18' W 083°06'11 2.1 120 / 41025.7 26.8 42.6
2016-Aug-29 13:00N 42°24' W 082°54'1110.7 060 / 91026.0 22.2 42.6
2016-Aug-29 12:00N 42°30' W 082°42'7 7.5 070 / 81025.7 21.3 42.6
2016-Aug-29 11:00N 42°36' W 082°36'7 7.4 040 / 81025.3 19.2 42.6
2016-Aug-29 10:00N 42°42' W 082°30'1212.0 030 / 51025.2 19.6 42.6
2016-Aug-29 09:00N 42°54' W 082°30'7 7.4 080 / 51024.5 19.9 42.6
2016-Aug-29 08:00N 43°00' W 082°24'1212.0 080 / 71024.510.8 0.521.7 42.6
2016-Aug-29 07:00N 43°12' W 082°24'6 6.0 050 / 91024.5 21.9 42.6
2016-Aug-29 06:00N 43°18' W 082°24'1312.8 050 / 91024.2 21.7 42.6
2016-Aug-29 05:00N 43°30' W 082°30'6 6.0 040 / 101024.5 21.4 42.6
2016-Aug-29 04:00N 43°36' W 082°30'1212.0 070 / 71024.5 21.4 42.6
2016-Aug-29 03:00N 43°48' W 082°30'6 6.0 070 / 71023.8 21.1 42.6
2016-Aug-29 02:00N 43°54' W 082°30'7 7.4 060 / 91023.5 21.1 42.6
2016-Aug-29 01:00N 44°00' W 082°36'1110.5 060 / 91022.8 21.1 42.6
2016-Aug-29 00:00N 44°06' W 082°48'7 7.4 050 / 101022.5 21.7 42.6
2016-Aug-28 23:00N 44°12' W 082°54'1010.5 070 / 41022.5 22.1 42.6
2016-Aug-28 22:00N 44°18' W 083°06'7 7.4 140 / 81022.5 22.7 42.6
2016-Aug-28 21:00N 44°24' W 083°12'6 6.0 120 / 101022.5 22.0 42.6
2016-Aug-28 20:00N 44°30' W 083°12'1212.0 110 / 91022.1 21.2 42.6
2016-Aug-28 19:00N 44°42' W 083°12'7 7.4 1022.5 23.0 42.6
2016-Aug-28 18:00N 44°48' W 083°06'1212.0 330 / 101022.8 21.5 42.6
2016-Aug-28 17:00N 45°00' W 083°06'6 6.0 300 / 111022.5 21.1 42.6
2016-Aug-28 16:00N 45°06' W 083°06'1010.4 330 / 161022.5 19.4 42.6
2016-Aug-28 15:00N 45°12' W 083°18'7 7.3 300 / 161021.8 22.9 42.6
2016-Aug-28 14:00N 45°18' W 083°24'0 0.0 310 / 161020.8 20.0 42.6
2016-Aug-28 13:00N 45°18' W 083°24'0 0.0 300 / 121020.8 19.3 42.6
2016-Aug-28 12:00N 45°18' W 083°24'0 0.0 310 / 121020.4 19.4 42.6
2016-Aug-28 11:00N 45°18' W 083°24'0 0.0 270 / 81019.8 20.6 42.6
2016-Aug-28 10:00N 45°18' W 083°24'0 0.0 240 / 91018.8 20.8 42.6
2016-Aug-28 09:00N 45°18' W 083°24'0 0.0 230 / 101018.1 20.6 42.6
2016-Aug-28 08:00N 45°18' W 083°24'0 0.0 220 / 101018.4 20.9 42.6
2016-Aug-28 07:00N 45°18' W 083°24'0 0.0 210 / 101018.1 20.9 42.6
2016-Aug-28 06:00N 45°18' W 083°24'0 0.0 210 / 101017.7 20.8 42.6
2016-Aug-28 05:00N 45°18' W 083°24'0 0.0 210 / 101018.1 20.6 42.6
2016-Aug-28 04:00N 45°18' W 083°24'0 0.0 150 / 91018.4 23.8 42.6
2016-Aug-28 03:00N 45°18' W 083°24'7 7.3 150 / 91018.8 24.2 42.6
2016-Aug-28 02:00N 45°12' W 083°18'1010.4 140 / 161018.8 22.0 42.6
2016-Aug-28 01:00N 45°06' W 083°06'6 6.0 120 / 141019.1 20.9 42.6
2016-Aug-28 00:00N 45°00' W 083°06'1312.7 120 / 141019.1 21.1 42.6
2016-Aug-27 23:00N 44°48' W 083°12'1212.0 130 / 151019.4 21.5 42.6
2016-Aug-27 22:00N 44°36' W 083°12'6 6.0 130 / 171019.4 21.2 42.6
2016-Aug-27 21:00N 44°30' W 083°12'1212.0 130 / 141019.8 20.9 42.6
2016-Aug-27 20:00N 44°18' W 083°12'1010.5 090 / 161019.8 21.4 42.6
2016-Aug-27 19:00N 44°12' W 083°24'7 7.4 100 / 151020.4 21.1 42.6
2016-Aug-27 18:00N 44°06' W 083°30'1312.8 090 / 121021.1 20.1 42.6
2016-Aug-27 17:00N 43°54' W 083°36'7 7.4 050 / 71021.5 20.4 42.6
2016-Aug-27 16:00N 43°48' W 083°42'1312.8 340 / 141021.8 20.4 42.6
2016-Aug-27 15:00N 43°36' W 083°48'0 0.0 320 / 101022.5 21.6 42.6
2016-Aug-27 14:00N 43°36' W 083°48'0 0.0 140 / 41021.8 21.5 42.6
2016-Aug-27 13:00N 43°36' W 083°48'0 0.0 050 / 11021.5 20.8 42.6
2016-Aug-27 12:00N 43°36' W 083°48'0 0.0 170 / 41021.8 18.9 42.6
2016-Aug-27 11:00N 43°36' W 083°48'0 0.0 170 / 51021.1 18.5 42.6
2016-Aug-27 10:00N 43°36' W 083°48'0 0.0 160 / 21021.1 19.2 42.6
2016-Aug-27 09:00N 43°36' W 083°48'6 6.0 070 / 11021.5 19.9 42.6
2016-Aug-27 08:00N 43°42' W 083°48'7 7.4 040 / 51021.5 20.9 42.6
2016-Aug-27 07:00N 43°48' W 083°42'7 7.4 360 / 101021.5 20.6 42.6
2016-Aug-27 06:00N 43°54' W 083°36'1312.8 360 / 91021.5 19.8 42.6
2016-Aug-27 05:00N 44°06' W 083°30'7 7.4 010 / 101021.1 21.2 42.6
2016-Aug-27 04:00N 44°12' W 083°24'7 7.4 010 / 101021.5 20.8 42.6
2016-Aug-27 03:00N 44°18' W 083°18'7 7.4 110 / 91021.5 21.8 42.6
2016-Aug-27 02:00N 44°24' W 083°12'1212.0 110 / 121020.8 21.1 42.6
2016-Aug-27 01:00N 44°36' W 083°12'6 6.0 100 / 101020.8 21.3 42.6
2016-Aug-27 00:00N 44°42' W 083°12'7 7.4 090 / 91020.8 21.7 42.6
2016-Aug-26 23:00N 44°48' W 083°06'1212.0 100 / 81020.1 21.3 42.6
2016-Aug-26 22:00N 45°00' W 083°06'6 6.0 090 / 71020.1 20.9 42.6
2016-Aug-26 21:00N 45°06' W 083°06'1010.4 150 / 81020.1 20.3 42.6
2016-Aug-26 20:00N 45°12' W 083°18'1312.7 100 / 51020.1 19.9 42.6
2016-Aug-26 19:00N 45°24' W 083°24'8 8.4 020 / 91020.1 21.0 42.6
2016-Aug-26 18:00N 45°24' W 083°36'8 8.4 010 / 81019.4 20.1 42.6
2016-Aug-26 17:00N 45°24' W 083°48'0 0.0 360 / 91019.810.8 0.520.0 42.6
2016-Aug-26 16:00N 45°24' W 083°48'0 0.0 340 / 51020.1 20.2 42.6
2016-Aug-26 15:00N 45°24' W 083°48'0 0.0 320 / 111019.8 20.0 42.6
2016-Aug-26 14:00N 45°24' W 083°48'0 0.0 300 / 61019.8 20.4 42.6
2016-Aug-26 13:00N 45°24' W 083°48'0 0.0 260 / 71019.1 19.4 42.6
2016-Aug-26 12:00N 45°24' W 083°48'0 0.0 260 / 61018.8 18.4 42.6
2016-Aug-26 11:00N 45°24' W 083°48'0 0.0 270 / 71018.1 16.8 42.6
2016-Aug-26 10:00N 45°24' W 083°48'0 0.0 280 / 71017.4 17.5 42.6
2016-Aug-26 09:00N 45°24' W 083°48'0 0.0 280 / 81017.1 18.0 42.6
2016-Aug-26 08:00N 45°24' W 083°48'0 0.0 300 / 101016.4 18.6 42.6
2016-Aug-26 07:00N 45°24' W 083°48'0 0.0 240 / 101015.7 19.8 42.6
2016-Aug-26 06:00N 45°24' W 083°48'0 0.0 250 / 121015.0 19.3 42.6
2016-Aug-26 05:00N 45°24' W 083°48'4 4.2 260 / 121015.4 19.5 42.6
2016-Aug-26 04:00N 45°24' W 083°42'8 8.4 220 / 121014.7 20.1 42.6
2016-Aug-26 03:00N 45°24' W 083°30'1010.3 270 / 81015.0 20.6 42.6
2016-Aug-26 02:00N 45°18' W 083°18'7 7.3 290 / 131015.4 21.6 42.6
2016-Aug-26 01:00N 45°12' W 083°12'1312.7 320 / 181014.3 21.8 42.6
2016-Aug-26 00:00N 45°00' W 083°06'1212.0 080 / 71014.0 22.6 42.6
2016-Aug-25 23:00N 44°48' W 083°06'7 7.4 030 / 61014.0 23.5 42.6
2016-Aug-25 22:00N 44°42' W 083°12'1212.0 160 / 51013.7 23.9 42.6
2016-Aug-25 21:00N 44°30' W 083°12'1212.0 190 / 111013.7 24.5 42.6
2016-Aug-25 20:00N 44°18' W 083°12'1010.5 210 / 121014.0 23.3 42.6
2016-Aug-25 19:00N 44°12' W 083°24'7 7.4 220 / 111014.0 23.8 42.6
2016-Aug-25 18:00N 44°06' W 083°30'1312.8 210 / 131014.3 22.7 42.6
2016-Aug-25 17:00N 43°54' W 083°36'7 7.4 210 / 81015.0 24.7 42.6
2016-Aug-25 16:00N 43°48' W 083°42'7 7.4 250 / 31014.7 22.5 42.6
2016-Aug-25 15:00N 43°42' W 083°48'7 7.4 300 / 21014.7 22.6 42.6
2016-Aug-25 14:00N 43°36' W 083°54'0 0.0 200 / 61014.7 22.6 42.6
2016-Aug-25 13:00N 43°36' W 083°54'0 0.0 220 / 81015.7 22.0 42.6
2016-Aug-25 12:00N 43°36' W 083°54'6 6.0 230 / 51015.0 22.3 42.6
2016-Aug-25 11:00N 43°30' W 083°54'0 0.0 210 / 61015.0 22.4 42.6
2016-Aug-25 10:00N 43°30' W 083°54'0 0.0 240 / 31014.7 22.4 42.6
2016-Aug-25 09:00N 43°30' W 083°54'0 0.0 180 / 41014.7 24.8 42.6
2016-Aug-25 08:00N 43°30' W 083°54'0 0.0 270 / 21014.7 23.3 42.6
2016-Aug-25 07:00N 43°30' W 083°54'0 0.0 250 / 31014.0 22.6 42.6
2016-Aug-25 06:00N 43°30' W 083°54'0 0.0 240 / 41013.7 23.2 42.6
2016-Aug-25 05:00N 43°30' W 083°54'0 0.0 220 / 51013.7 24.9 42.6
2016-Aug-25 04:00N 43°30' W 083°54'0 0.0 250 / 71013.7 23.6 42.6
2016-Aug-25 03:00N 43°30' W 083°54'6 6.0 240 / 81014.0 24.1 42.6
2016-Aug-25 02:00N 43°36' W 083°54'0 0.0 230 / 91014.0 25.2 42.6
2016-Aug-25 01:00N 43°36' W 083°54'0 0.0 200 / 51014.0 25.3 42.6
2016-Aug-25 00:00N 43°36' W 083°54'0 0.0 220 / 71013.7 25.9 42.6
2016-Aug-24 23:00N 43°36' W 083°54'4 4.3 220 / 101013.7 26.6 42.6
2016-Aug-24 22:00N 43°36' W 083°48'1212.0 220 / 81014.0 26.6 42.6
2016-Aug-24 21:00N 43°48' W 083°48'7 7.4 240 / 121014.0 25.2 42.6
2016-Aug-24 20:00N 43°54' W 083°42'1110.5 210 / 191014.3 24.2 42.6
2016-Aug-24 19:00N 44°00' W 083°30'6 6.0 220 / 181014.7 23.7 42.6
2016-Aug-24 18:00N 44°06' W 083°30'1010.5 200 / 221015.4 22.4 42.6
2016-Aug-24 17:00N 44°12' W 083°18'7 7.4 180 / 211015.4 23.9 42.6
2016-Aug-24 16:00N 44°18' W 083°12'1212.0 190 / 241016.4 23.2 42.6
2016-Aug-24 15:00N 44°30' W 083°12'6 6.0 180 / 241017.1 21.0 42.6
2016-Aug-24 14:00N 44°36' W 083°12'7 7.4 180 / 191017.4 20.7 42.6
2016-Aug-24 13:00N 44°42' W 083°06'1212.0 180 / 201018.1 20.3 42.6
2016-Aug-24 12:00N 44°54' W 083°06'6 6.0 190 / 181019.1 20.5 42.6
2016-Aug-24 11:00N 45°00' W 083°06'1312.7 180 / 161019.1 20.0 42.6
2016-Aug-24 10:00N 45°12' W 083°12'7 7.3 200 / 171019.1 20.0 42.6
2016-Aug-24 09:00N 45°18' W 083°18'7 7.3 190 / 181019.1 20.3 42.6
2016-Aug-24 08:00N 45°24' W 083°24'7 7.3 200 / 151019.1 20.1 42.6
2016-Aug-24 07:00N 45°30' W 083°30'20 9.9 210 / 141018.8 20.2 42.6
2016-Aug-24 05:00N 45°48' W 083°42'1010.3 220 / 161019.1 20.6 42.6
2016-Aug-24 04:00N 45°54' W 083°54'6 6.0 190 / 161018.8 20.7 42.6
2016-Aug-24 03:00N 46°00' W 083°54'0 0.0 200 / 61019.8 19.9 42.6
2016-Aug-24 02:00N 46°00' W 083°54'0 0.0 250 / 81020.1 21.8 42.6
2016-Aug-24 01:00N 46°00' W 083°54'0 0.0 260 / 81019.8 22.4 42.6
2016-Aug-24 00:00N 46°00' W 083°54'0 0.0 270 / 91019.8 23.8 42.6
2016-Aug-23 23:00N 46°00' W 083°54'0 0.0 280 / 91019.4 24.7 42.6
2016-Aug-23 22:00N 46°00' W 083°54'0 0.0 270 / 151019.4 25.5 42.6
2016-Aug-23 21:00N 46°00' W 083°54'0 0.0 270 / 181019.4 25.6 42.6
2016-Aug-23 20:00N 46°00' W 083°54'0 0.0 260 / 121019.8 25.8 42.6
2016-Aug-23 19:00N 46°00' W 083°54'1312.7 250 / 121020.1 22.4 42.6
2016-Aug-23 18:00N 45°48' W 083°48'7 7.3 240 / 121020.1 23.3 42.6
2016-Aug-23 17:00N 45°42' W 083°42'1010.3 230 / 131020.4 22.1 42.6
2016-Aug-23 16:00N 45°36' W 083°30'1312.7 220 / 111020.4 22.7 42.6
2016-Aug-23 15:00N 45°24' W 083°24'7 7.3 240 / 121021.1 22.2 42.6
2016-Aug-23 14:00N 45°18' W 083°18'1010.4 220 / 131021.8 21.4 42.6
2016-Aug-23 13:00N 45°12' W 083°06'1212.0 210 / 101022.1 20.3 42.6
2016-Aug-23 12:00N 45°00' W 083°06'1212.0 210 / 101021.8 19.2 42.6
2016-Aug-23 11:00N 44°48' W 083°06'7 7.4 200 / 91021.5 18.8 42.6
2016-Aug-23 10:00N 44°42' W 083°12'1212.0 230 / 121021.5 18.6 42.6
2016-Aug-23 09:00N 44°30' W 083°12'1212.0 220 / 191021.5 17.6 42.6
2016-Aug-23 08:00N 44°18' W 083°12'1010.5 250 / 191022.1 19.9 42.6
2016-Aug-23 07:00N 44°12' W 083°24'7 7.4 240 / 151022.5 21.3 42.6
2016-Aug-23 06:00N 44°06' W 083°30'1312.8 250 / 131022.5 20.5 42.6
2016-Aug-23 05:00N 43°54' W 083°36'7 7.4 250 / 161022.5 21.6 42.6
2016-Aug-23 04:00N 43°48' W 083°42'7 7.4 250 / 121022.1 21.5 42.6
2016-Aug-23 03:00N 43°42' W 083°48'7 7.4 210 / 71022.1 20.8 42.6
2016-Aug-23 02:00N 43°36' W 083°54'0 0.0 200 / 31021.8 20.5 42.6
2016-Aug-23 01:00N 43°36' W 083°54'6 6.0 210 / 51021.5 22.9 42.6
2016-Aug-23 00:00N 43°30' W 083°54'0 0.0 220 / 61021.5 22.8 42.6
2016-Aug-22 23:00N 43°30' W 083°54'0 0.0 260 / 61021.5 23.9 42.6
2016-Aug-22 22:00N 43°30' W 083°54'0 0.0 240 / 61021.5 24.5 42.6
2016-Aug-22 21:00N 43°30' W 083°54'0 0.0 200 / 31021.8 23.9 42.6
2016-Aug-22 20:00N 43°30' W 083°54'0 0.0 260 / 51021.8 22.8 42.6
2016-Aug-22 19:00N 43°30' W 083°54'0 0.0 200 / 61021.8 24.1 42.6
2016-Aug-22 18:00N 43°30' W 083°54'0 0.0 220 / 51022.5 23.0 42.6
2016-Aug-22 17:00N 43°30' W 083°54'0 0.0 240 / 41022.5 21.4 42.6
2016-Aug-22 16:00N 43°30' W 083°54'0 0.0 250 / 61022.5 20.2 42.6
2016-Aug-22 15:00N 43°30' W 083°54'6 6.0 220 / 41022.5 18.9 42.6
2016-Aug-22 14:00N 43°36' W 083°54'0 0.0 230 / 21022.1 17.7 42.6
2016-Aug-22 13:00N 43°36' W 083°54'0 0.0 220 / 31021.5 17.1 42.6
2016-Aug-22 12:00N 43°36' W 083°54'0 0.0 260 / 31020.8 14.8 42.6
2016-Aug-22 11:00N 43°36' W 083°54'4 4.3 250 / 41020.8 13.9 42.6
2016-Aug-22 10:00N 43°36' W 083°48'6 6.0 270 / 51019.8 14.4 42.6
2016-Aug-22 09:00N 43°42' W 083°48'7 7.4 300 / 121019.1 17.6 42.6
2016-Aug-22 08:00N 43°48' W 083°42'7 7.4 300 / 161018.4 18.0 42.6
2016-Aug-22 07:00N 43°54' W 083°36'1312.8 330 / 91018.1 17.5 42.6
2016-Aug-22 06:00N 44°06' W 083°30'7 7.4 330 / 61017.7 17.6 42.6
2016-Aug-22 05:00N 44°12' W 083°24'7 7.4 310 / 71017.1 18.0 42.6
2016-Aug-22 04:00N 44°18' W 083°18'7 7.4 320 / 101016.7 17.2 42.6
2016-Aug-22 03:00N 44°24' W 083°12'6 6.0 300 / 71016.0 16.4 42.6
2016-Aug-22 02:00N 44°30' W 083°12'1212.0 330 / 91015.4 17.9 42.6
2016-Aug-22 01:00N 44°42' W 083°12'7 7.4 1014.3 22.9 42.6
2016-Aug-22 00:00N 44°48' W 083°06'1212.0 350 / 181013.7 19.9 42.6
2016-Aug-21 23:00N 45°00' W 083°06'6 6.0 330 / 231013.0 17.7 42.6
2016-Aug-21 22:00N 45°06' W 083°06'1010.4 310 / 241012.0 17.8 42.6
2016-Aug-21 21:00N 45°12' W 083°18'7 7.3 320 / 231011.3 18.0 42.6
2016-Aug-21 20:00N 45°18' W 083°24'0 0.0 310 / 191011.0 17.4 42.6
2016-Aug-21 19:00N 45°18' W 083°24'0 0.0 310 / 211009.6 17.5 42.6
2016-Aug-21 18:00N 45°18' W 083°24'0 0.0 320 / 221008.9 17.7 42.6
2016-Aug-21 17:00N 45°18' W 083°24'0 0.0 330 / 171008.3 16.4 42.6
2016-Aug-21 16:00N 45°18' W 083°24'0 0.0 300 / 241006.9 17.5 42.6
2016-Aug-21 15:00N 45°18' W 083°24'0 0.0 310 / 231005.5 17.4 42.6
2016-Aug-21 14:00N 45°18' W 083°24'0 0.0 300 / 201004.2 17.0 42.6
2016-Aug-21 13:00N 45°18' W 083°24'0 0.0 280 / 171002.5 17.3 42.6
2016-Aug-21 12:00N 45°18' W 083°24'0 0.0 270 / 191001.5 17.3 42.6
2016-Aug-21 11:00N 45°18' W 083°24'0 0.0 260 / 171000.5 17.7 42.6
2016-Aug-21 10:00N 45°18' W 083°24'0 0.0 220 / 14999.4 17.8 42.6
2016-Aug-21 09:00N 45°18' W 083°24'7 7.3 250 / 17999.1 18.2 42.6
2016-Aug-21 08:00N 45°24' W 083°30'1010.3 260 / 30998.1 19.1 42.6
2016-Aug-21 07:00N 45°30' W 083°42'8 8.4 250 / 21997.8 19.4 42.6
2016-Aug-21 06:00N 45°30' W 083°54'1010.3 240 / 18997.4 20.1 42.6
2016-Aug-21 05:00N 45°36' W 084°06'1010.3 230 / 19997.1 20.5 42.6
2016-Aug-21 04:00N 45°42' W 084°18'1312.6 220 / 20996.7 21.0 42.6
2016-Aug-21 03:00N 45°42' W 084°36'1011.1 240 / 19996.4 21.2 42.6
2016-Aug-21 02:06N 45°49' W 084°46'217.1
2016-Aug-21 02:00N 45°48' W 084°48'   230 / 19996.1 21.7 42.6

Dump ship's entire track history